Time;durP1;ratioP1;P1;durP2;ratioP2;P2;SDS_P1;SDS_P2;PMS_P1;PMS_P2;Temp;Humidity;BMP_temperature;BMP_pressure;BME280_temperature;BME280_humidity;BME280_pressure;Samples;Min_cycle;Max_cycle;Signal;HPM_P1;HPM_P2
2023/01/03 00:00:30;;;;;;;;;;;14.20;59.90;;;;;;5087417;28;19942;-68
2023/01/03 00:02:56;;;;;;;;;;;14.20;59.90;;;;;;5087756;28;19924;-74
2023/01/03 00:05:22;;;;;;;;;;;14.20;59.90;;;;;;5087637;28;20061;-73
2023/01/03 00:07:47;;;;;;;;;;;14.70;59.90;;;;;;5088842;28;19920;-67
2023/01/03 00:10:13;;;;;;;;;;;15.10;59.00;;;;;;5074965;28;19928;-67
2023/01/03 00:12:38;;;;;;;;;;;15.70;57.80;;;;;;5075019;28;19920;-73
2023/01/03 00:15:04;;;;;;;;;;;16.30;56.20;;;;;;5074683;28;19930;-75
2023/01/03 00:17:30;;;;;;;;;;;17.10;54.40;;;;;;5073507;28;19924;-67
2023/01/03 00:19:56;;;;;;;;;;;17.90;52.30;;;;;;5073846;28;19960;-67
2023/01/03 00:22:21;;;;;;;;;;;18.80;50.60;;;;;;5073422;28;20358;-68
2023/01/03 00:24:47;;;;;;;;;;;19.60;48.60;;;;;;5074291;28;19982;-68
2023/01/03 00:27:14;;;;;;;;;;;20.40;47.10;;;;;;5074548;28;19920;-68
2023/01/03 00:29:40;;;;;;;;;;;21.10;45.40;;;;;;5074465;28;19924;-68
2023/01/03 00:32:05;;;;;;;;;;;21.70;44.30;;;;;;5073197;28;19921;-65
2023/01/03 00:34:31;;;;;;;;;;;22.30;43.30;;;;;;5074409;28;19927;-65
2023/01/03 00:36:57;;;;;;;;;;;22.70;42.50;;;;;;5073395;28;19931;-72
2023/01/03 00:39:23;;;;;;;;;;;23.10;41.70;;;;;;5074590;28;19920;-72
2023/01/03 00:41:49;;;;;;;;;;;23.40;41.20;;;;;;5074418;28;20007;-65
2023/01/03 00:44:14;;;;;;;;;;;23.50;40.80;;;;;;5073030;28;19967;-65
2023/01/03 00:46:40;;;;;;;;;;;23.60;40.80;;;;;;5072693;28;19920;-66
2023/01/03 00:49:06;;;;;;;;;;;23.60;40.60;;;;;;5073214;28;19920;-72
2023/01/03 00:51:32;;;;;;;;;;;23.50;40.70;;;;;;5074051;28;19924;-73
2023/01/03 00:53:59;;;;;;;;;;;23.40;40.90;;;;;;5074289;28;20253;-65
2023/01/03 00:56:28;;;;;;;;;;;23.30;41.30;;;;;;5074281;28;19920;-65
2023/01/03 00:58:57;;;;;;;;;;;23.10;41.50;;;;;;5076593;28;20342;-72
2023/01/03 01:01:23;;;;;;;;;;;23.00;41.60;;;;;;5076085;28;19924;-65
2023/01/03 01:03:51;;;;;;;;;;;22.80;41.80;;;;;;5076312;28;19924;-66
2023/01/03 01:06:19;;;;;;;;;;;22.60;42.20;;;;;;5094171;28;19923;-64
2023/01/03 01:08:45;;;;;;;;;;;22.50;42.30;;;;;;5094060;28;20314;-65
2023/01/03 01:11:11;;;;;;;;;;;22.30;42.70;;;;;;5094112;28;20015;-65
2023/01/03 01:13:36;;;;;;;;;;;22.10;42.90;;;;;;5093918;28;20023;-72
2023/01/03 01:16:03;;;;;;;;;;;21.90;43.40;;;;;;5076136;28;20359;-72
2023/01/03 01:18:29;;;;;;;;;;;21.70;43.70;;;;;;5075763;28;19927;-65
2023/01/03 01:20:55;;;;;;;;;;;21.40;43.90;;;;;;5075217;28;19916;-65
2023/01/03 01:23:20;;;;;;;;;;;21.30;44.40;;;;;;5075992;28;20404;-73
2023/01/03 01:25:46;;;;;;;;;;;21.10;44.70;;;;;;5075546;28;19969;-65
2023/01/03 01:28:11;;;;;;;;;;;20.80;45.00;;;;;;5075455;28;19973;-65
2023/01/03 01:30:37;;;;;;;;;;;20.70;45.00;;;;;;5075683;28;19927;-73
2023/01/03 01:33:02;;;;;;;;;;;20.60;45.30;;;;;;5075611;28;19916;-65
2023/01/03 01:35:28;;;;;;;;;;;20.50;45.60;;;;;;5075866;28;20000;-65
2023/01/03 01:37:54;;;;;;;;;;;20.40;45.70;;;;;;5093574;28;20022;-73
2023/01/03 01:40:19;;;;;;;;;;;20.30;45.90;;;;;;5075501;28;20005;-72
2023/01/03 01:45:30;;;;;;;;;;;20.10;46.20;;;;;;5075232;28;19924;-65
2023/01/03 01:50:39;;;;;;;;;;;19.90;46.50;;;;;;5089830;28;20271;-65
2023/01/03 01:55:47;;;;;;;;;;;19.70;46.80;;;;;;5089875;28;20400;-71
2023/01/03 01:58:13;;;;;;;;;;;19.60;46.80;;;;;;5088643;28;19998;-64
2023/01/03 02:00:39;;;;;;;;;;;19.50;47.00;;;;;;5088794;28;19930;-64
2023/01/03 02:03:05;;;;;;;;;;;19.40;47.20;;;;;;5090108;28;19920;-65
2023/01/03 02:05:32;;;;;;;;;;;19.30;47.50;;;;;;5088554;28;20240;-72
2023/01/03 02:07:58;;;;;;;;;;;19.20;47.50;;;;;;5088320;28;20411;-64
2023/01/03 02:10:32;;;;;;;;;;;19.10;47.60;;;;;;5088670;28;20004;-65
2023/01/03 02:13:04;;;;;;;;;;;19.00;47.70;;;;;;5088093;28;19920;-64
2023/01/03 02:15:49;;;;;;;;;;;18.90;47.80;;;;;;5088053;28;20475;-64
2023/01/03 02:23:57;;;;;;;;;;;18.70;48.20;;;;;;5089331;28;20394;-65
2023/01/03 02:32:01;;;;;;;;;;;18.40;48.50;;;;;;5090010;28;19965;-65
2023/01/03 02:34:46;;;;;;;;;;;18.30;48.60;;;;;;5088869;28;20348;-73
2023/01/03 02:40:20;;;;;;;;;;;18.10;48.70;;;;;;5089933;28;19935;-64
2023/01/03 02:43:06;;;;;;;;;;;18.10;48.80;;;;;;5088770;28;19960;-65
2023/01/03 02:48:14;;;;;;;;;;;18.00;49.00;;;;;;5110297;27;19912;-64
2023/01/03 02:50:48;;;;;;;;;;;17.90;49.00;;;;;;5109146;28;19920;-64
2023/01/03 02:53:17;;;;;;;;;;;17.90;49.10;;;;;;5109274;28;19924;-64
2023/01/03 02:55:43;;;;;;;;;;;17.80;49.10;;;;;;5108830;28;19926;-64
2023/01/03 02:58:11;;;;;;;;;;;17.80;49.20;;;;;;5143528;27;20330;-64
2023/01/03 03:00:40;;;;;;;;;;;17.70;49.30;;;;;;5109998;28;19927;-64
2023/01/03 03:03:09;;;;;;;;;;;17.60;49.40;;;;;;5108649;28;19920;-72
2023/01/03 03:05:40;;;;;;;;;;;17.50;49.50;;;;;;5108632;28;19920;-72
2023/01/03 03:08:06;;;;;;;;;;;17.40;49.70;;;;;;5108652;28;19924;-72
2023/01/03 03:18:58;;;;;;;;;;;17.20;50.10;;;;;;5110390;27;19944;-64
2023/01/03 03:28:33;;;;;;;;;;;17.00;50.50;;;;;;5108970;28;20428;-64
2023/01/03 03:29:51;;;;;;;;;;;16.90;50.60;;;;;;5108980;28;19920;-72
2023/01/03 03:32:16;;;;;;;;;;;16.80;50.70;;;;;;5109027;28;19927;-72
2023/01/03 03:34:43;;;;;;;;;;;16.80;50.80;;;;;;5109056;28;20375;-64
2023/01/03 03:37:11;;;;;;;;;;;16.70;50.90;;;;;;5108588;28;19927;-64
2023/01/03 03:45:09;;;;;;;;;;;16.50;51.20;;;;;;5110268;27;19946;-72
2023/01/03 03:47:54;;;;;;;;;;;16.50;51.30;;;;;;5109228;28;19924;-64
2023/01/03 03:50:24;;;;;;;;;;;16.40;51.40;;;;;;5109201;28;19924;-64
2023/01/03 03:52:51;;;;;;;;;;;16.50;51.50;;;;;;5109126;28;19973;-64
2023/01/03 03:55:21;;;;;;;;;;;16.30;51.50;;;;;;5109150;28;20006;-64
2023/01/03 03:57:51;;;;;;;;;;;16.30;51.70;;;;;;5108734;28;19924;-64
2023/01/03 04:00:20;;;;;;;;;;;16.20;51.60;;;;;;5108739;28;19934;-64
2023/01/03 04:02:46;;;;;;;;;;;16.20;51.70;;;;;;5108866;28;19920;-64
2023/01/03 04:05:13;;;;;;;;;;;16.20;51.80;;;;;;5110007;28;20419;-63
2023/01/03 04:07:39;;;;;;;;;;;16.10;51.80;;;;;;5109841;28;19924;-72
2023/01/03 04:10:05;;;;;;;;;;;16.10;51.80;;;;;;5109785;28;19970;-63
2023/01/03 04:12:30;;;;;;;;;;;16.10;51.90;;;;;;5109705;28;19919;-63
2023/01/03 04:14:56;;;;;;;;;;;16.10;51.90;;;;;;5108637;28;20035;-63
2023/01/03 04:17:21;;;;;;;;;;;16.10;51.90;;;;;;5108456;28;19928;-64
2023/01/03 04:19:47;;;;;;;;;;;16.00;51.90;;;;;;5109744;28;19927;-63
2023/01/03 04:22:12;;;;;;;;;;;16.00;51.90;;;;;;5142934;27;19959;-63
2023/01/03 04:24:38;;;;;;;;;;;16.00;51.90;;;;;;5108161;28;19924;-64
2023/01/03 04:27:03;;;;;;;;;;;16.00;51.90;;;;;;5108240;28;20018;-71
2023/01/03 04:29:29;;;;;;;;;;;16.00;51.90;;;;;;5108143;28;20007;-72
2023/01/03 04:31:54;;;;;;;;;;;16.00;51.90;;;;;;5108455;28;19920;-64
2023/01/03 04:34:20;;;;;;;;;;;15.90;51.90;;;;;;5108057;28;19920;-72
2023/01/03 04:36:46;;;;;;;;;;;15.90;51.90;;;;;;5108099;28;20003;-71
2023/01/03 04:39:11;;;;;;;;;;;15.80;51.90;;;;;;5108253;28;19959;-71
2023/01/03 04:41:37;;;;;;;;;;;15.90;52.00;;;;;;5107933;28;20284;-63
2023/01/03 04:44:03;;;;;;;;;;;15.90;51.90;;;;;;5107577;28;19946;-64
2023/01/03 04:46:33;;;;;;;;;;;15.90;51.90;;;;;;5109084;28;20368;-64
2023/01/03 04:48:59;;;;;;;;;;;15.90;51.90;;;;;;5108026;28;19920;-70
2023/01/03 04:51:25;;;;;;;;;;;15.90;51.90;;;;;;5109011;28;20393;-72
2023/01/03 04:53:50;;;;;;;;;;;15.90;51.90;;;;;;5109022;28;19920;-63
2023/01/03 04:56:16;;;;;;;;;;;15.90;51.80;;;;;;5095798;28;20011;-63
2023/01/03 04:58:41;;;;;;;;;;;15.90;51.80;;;;;;5094354;28;19994;-63
2023/01/03 05:01:07;;;;;;;;;;;15.90;51.80;;;;;;5093931;28;19952;-63
2023/01/03 05:03:33;;;;;;;;;;;15.90;51.80;;;;;;5093898;28;19931;-64
2023/01/03 05:05:59;;;;;;;;;;;15.80;51.80;;;;;;5095196;28;19920;-63
2023/01/03 05:08:25;;;;;;;;;;;15.80;51.80;;;;;;5094184;28;20054;-63
2023/01/03 05:10:51;;;;;;;;;;;15.80;51.80;;;;;;5093806;28;20011;-63
2023/01/03 05:13:17;;;;;;;;;;;15.80;51.70;;;;;;5093680;28;19920;-64
2023/01/03 05:15:42;;;;;;;;;;;15.80;51.70;;;;;;5093604;28;19920;-63
2023/01/03 05:18:08;;;;;;;;;;;15.80;51.70;;;;;;5095160;28;19926;-63
2023/01/03 05:26:09;;;;;;;;;;;15.70;51.70;;;;;;5094600;28;19943;-71
2023/01/03 05:28:35;;;;;;;;;;;15.80;51.70;;;;;;5093484;28;19973;-63
2023/01/03 05:31:01;;;;;;;;;;;15.80;51.70;;;;;;5094842;28;19920;-71
2023/01/03 05:33:26;;;;;;;;;;;15.80;51.60;;;;;;5093716;28;20014;-63
2023/01/03 05:35:52;;;;;;;;;;;15.80;51.70;;;;;;5094671;28;20329;-64
2023/01/03 05:38:18;;;;;;;;;;;15.70;51.60;;;;;;5094621;28;20604;-71
2023/01/03 05:40:43;;;;;;;;;;;15.70;51.60;;;;;;5094454;28;19920;-63
2023/01/03 05:43:09;;;;;;;;;;;15.70;51.60;;;;;;5094099;28;20369;-63
2023/01/03 05:45:36;;;;;;;;;;;15.70;51.60;;;;;;5094749;28;19924;-64
2023/01/03 05:48:01;;;;;;;;;;;15.70;51.60;;;;;;5093693;28;19946;-64
2023/01/03 05:50:27;;;;;;;;;;;15.70;51.60;;;;;;5094354;28;19920;-64
2023/01/03 05:52:52;;;;;;;;;;;15.70;51.60;;;;;;5094245;28;20368;-64
2023/01/03 05:55:18;;;;;;;;;;;15.70;51.60;;;;;;5093270;28;20363;-66
2023/01/03 05:57:45;;;;;;;;;;;15.70;51.70;;;;;;5094342;28;20431;-63
2023/01/03 06:00:11;;;;;;;;;;;15.60;51.60;;;;;;5094333;28;19920;-71
2023/01/03 06:02:37;;;;;;;;;;;15.60;51.60;;;;;;5093031;28;20390;-63
2023/01/03 06:05:03;;;;;;;;;;;15.70;51.60;;;;;;5093078;28;19920;-64
2023/01/03 06:07:29;;;;;;;;;;;15.60;51.50;;;;;;5092955;28;19927;-64
2023/01/03 06:09:55;;;;;;;;;;;15.70;51.50;;;;;;5092688;28;20402;-70
2023/01/03 06:12:20;;;;;;;;;;;15.60;51.50;;;;;;5092594;28;19920;-71
2023/01/03 06:14:46;;;;;;;;;;;15.60;51.50;;;;;;5093727;28;19921;-64
2023/01/03 06:19:57;;;;;;;;;;;15.60;51.40;;;;;;5092558;28;19923;-63
2023/01/03 06:22:22;;;;;;;;;;;15.60;51.40;;;;;;5092586;28;19970;-64
2023/01/03 06:24:48;;;;;;;;;;;15.60;51.50;;;;;;5092180;28;20433;-64
2023/01/03 06:27:13;;;;;;;;;;;15.60;51.40;;;;;;5092505;28;20325;-64
2023/01/03 06:29:39;;;;;;;;;;;15.60;51.40;;;;;;5092048;28;19927;-64
2023/01/03 06:32:04;;;;;;;;;;;15.60;51.40;;;;;;5093221;28;19927;-71
2023/01/03 06:34:30;;;;;;;;;;;15.60;51.40;;;;;;5091886;28;19927;-64
2023/01/03 06:36:55;;;;;;;;;;;15.60;51.40;;;;;;5092403;28;19920;-63
2023/01/03 06:39:21;;;;;;;;;;;15.60;51.30;;;;;;5093101;28;20380;-64
2023/01/03 06:41:47;;;;;;;;;;;15.60;51.20;;;;;;5092311;28;19916;-63
2023/01/03 06:44:12;;;;;;;;;;;15.90;51.20;;;;;;5091739;28;20021;-64
2023/01/03 06:54:58;;;;;;;;;;;18.80;46.00;;;;;;5092579;28;19920;-64
2023/01/03 06:57:24;;;;;;;;;;;19.90;44.10;;;;;;5093073;28;20279;-64
2023/01/03 06:59:49;;;;;;;;;;;20.70;42.50;;;;;;5093091;28;20396;-65
2023/01/03 07:02:15;;;;;;;;;;;21.30;41.10;;;;;;5092952;28;20314;-64
2023/01/03 07:04:41;;;;;;;;;;;21.90;40.10;;;;;;5092972;28;20370;-64
2023/01/03 07:07:06;;;;;;;;;;;22.50;39.30;;;;;;5092876;28;20477;-64
2023/01/03 07:09:31;;;;;;;;;;;23.00;38.40;;;;;;5092682;28;19920;-64
2023/01/03 07:13:57;;;;;;;;;;;23.30;37.80;;;;;;5092672;28;19990;-64
2023/01/03 07:14:42;;;;;;;;;;;23.60;37.40;;;;;;5091541;28;19920;-64
2023/01/03 07:17:08;;;;;;;;;;;23.90;36.80;;;;;;5092631;28;20294;-72
2023/01/03 07:19:33;;;;;;;;;;;24.10;36.80;;;;;;5092410;28;19930;-64
2023/01/03 07:21:59;;;;;;;;;;;24.20;36.50;;;;;;5091826;28;19927;-72
2023/01/03 07:24:24;;;;;;;;;;;24.10;36.40;;;;;;5092432;28;19924;-64
2023/01/03 07:26:50;;;;;;;;;;;24.10;36.50;;;;;;5092742;28;20294;-64
2023/01/03 07:29:15;;;;;;;;;;;24.00;36.70;;;;;;5092496;28;20263;-64
2023/01/03 07:31:41;;;;;;;;;;;23.90;36.80;;;;;;5092503;28;19916;-72
2023/01/03 07:34:07;;;;;;;;;;;23.70;37.00;;;;;;5091355;28;20014;-72
2023/01/03 07:36:33;;;;;;;;;;;23.60;37.30;;;;;;5092636;28;19916;-64
2023/01/03 07:38:58;;;;;;;;;;;23.40;37.50;;;;;;5091536;28;19984;-64
2023/01/03 07:43:35;;;;;;;;;;;23.20;37.80;;;;;;5091198;28;20372;-64
2023/01/03 07:44:09;;;;;;;;;;;23.10;38.10;;;;;;5090732;28;20053;-64
2023/01/03 07:46:35;;;;;;;;;;;22.90;38.40;;;;;;5090879;28;20002;-72
2023/01/03 07:49:01;;;;;;;;;;;22.70;38.60;;;;;;5092276;28;19916;-64
2023/01/03 07:51:27;;;;;;;;;;;22.50;38.80;;;;;;5092327;28;19916;-64
2023/01/03 07:53:53;;;;;;;;;;;22.40;39.10;;;;;;5091255;28;19920;-64
2023/01/03 07:56:19;;;;;;;;;;;22.20;39.30;;;;;;5091193;28;19916;-72
2023/01/03 07:58:45;;;;;;;;;;;22.00;39.50;;;;;;5091335;28;19924;-64
2023/01/03 08:01:14;;;;;;;;;;;21.80;39.90;;;;;;5090787;28;19920;-64
2023/01/03 08:03:40;;;;;;;;;;;21.70;40.10;;;;;;5092037;28;19930;-64
2023/01/03 08:06:06;;;;;;;;;;;21.50;40.40;;;;;;5091188;28;19920;-65
2023/01/03 08:08:32;;;;;;;;;;;21.30;40.60;;;;;;5090646;28;20015;-64
2023/01/03 08:13:44;;;;;;;;;;;21.00;41.10;;;;;;5091588;28;20379;-70
2023/01/03 08:16:11;;;;;;;;;;;20.80;41.20;;;;;;5092255;28;20007;-65
2023/01/03 08:18:37;;;;;;;;;;;20.70;41.60;;;;;;5090848;28;19923;-65
2023/01/03 08:21:03;;;;;;;;;;;20.60;41.80;;;;;;5090852;28;19920;-65
2023/01/03 08:23:28;;;;;;;;;;;20.50;42.00;;;;;;5090934;28;19924;-65
2023/01/03 08:26:14;;;;;;;;;;;20.30;42.20;;;;;;5092080;28;19970;-72
2023/01/03 08:28:40;;;;;;;;;;;20.20;42.40;;;;;;5090627;28;19928;-65
2023/01/03 08:31:08;;;;;;;;;;;20.00;42.60;;;;;;5093336;28;20493;-72
2023/01/03 08:33:36;;;;;;;;;;;19.90;42.80;;;;;;5094931;28;19927;-65
2023/01/03 08:36:04;;;;;;;;;;;19.80;43.20;;;;;;5095868;28;19920;-65
2023/01/03 08:38:31;;;;;;;;;;;19.70;43.40;;;;;;5094455;28;19924;-65
2023/01/03 08:40:59;;;;;;;;;;;19.50;43.50;;;;;;5094710;28;19972;-71
2023/01/03 08:43:24;;;;;;;;;;;19.40;43.80;;;;;;5095316;28;19924;-72
2023/01/03 08:45:50;;;;;;;;;;;19.30;43.80;;;;;;5095619;28;19935;-64
2023/01/03 08:48:18;;;;;;;;;;;19.30;44.10;;;;;;5094608;28;20378;-64
2023/01/03 08:50:44;;;;;;;;;;;19.20;44.20;;;;;;5094270;28;19920;-64
2023/01/03 08:53:10;;;;;;;;;;;19.10;44.30;;;;;;5094510;28;19920;-64
2023/01/03 08:55:35;;;;;;;;;;;19.00;44.40;;;;;;5094278;28;20382;-64
2023/01/03 08:58:01;;;;;;;;;;;18.90;44.50;;;;;;5094285;28;19920;-65
2023/01/03 09:00:27;;;;;;;;;;;18.90;44.70;;;;;;5094143;28;20298;-64
2023/01/03 09:02:52;;;;;;;;;;;18.80;44.70;;;;;;5093992;28;19935;-71
2023/01/03 09:05:18;;;;;;;;;;;18.70;44.80;;;;;;5095335;28;19920;-64
2023/01/03 09:07:43;;;;;;;;;;;18.60;44.90;;;;;;5093885;28;19920;-71
2023/01/03 09:10:10;;;;;;;;;;;18.50;45.10;;;;;;5094235;28;19952;-72
2023/01/03 09:12:35;;;;;;;;;;;18.40;45.20;;;;;;5094959;28;19920;-64
2023/01/03 09:15:01;;;;;;;;;;;18.40;46.10;;;;;;5093734;28;19973;-64
2023/01/03 09:17:27;;;;;;;;;;;18.30;45.50;;;;;;5093770;28;20018;-64
2023/01/03 09:19:53;;;;;;;;;;;18.20;45.60;;;;;;5093954;28;20434;-64
2023/01/03 09:22:18;;;;;;;;;;;18.10;45.70;;;;;;5093977;28;20011;-64
2023/01/03 09:24:44;;;;;;;;;;;18.10;45.90;;;;;;5093517;28;19935;-71
2023/01/03 09:27:10;;;;;;;;;;;18.00;46.00;;;;;;5094757;28;19964;-71
2023/01/03 09:29:35;;;;;;;;;;;17.90;46.10;;;;;;5093733;28;20354;-64
2023/01/03 09:32:02;;;;;;;;;;;17.90;46.20;;;;;;5094797;28;20326;-64
2023/01/03 09:34:27;;;;;;;;;;;17.80;46.30;;;;;;5094634;28;19920;-64
2023/01/03 09:36:53;;;;;;;;;;;17.70;46.40;;;;;;5093403;28;20007;-64
2023/01/03 09:39:19;;;;;;;;;;;17.70;46.50;;;;;;5093255;28;19920;-71
2023/01/03 09:43:11;;;;;;;;;;;17.60;46.60;;;;;;5094439;28;19924;-71
2023/01/03 09:44:30;;;;;;;;;;;17.50;46.80;;;;;;5092767;28;19985;-64
2023/01/03 09:46:56;;;;;;;;;;;17.60;46.90;;;;;;5092836;28;19924;-65
2023/01/03 09:49:21;;;;;;;;;;;17.50;47.00;;;;;;5093393;28;20330;-71
2023/01/03 10:03:44;;;;;;;;;;;17.10;47.60;;;;;;5088485;28;19920;-71
2023/01/03 10:05:58;;;;;;;;;;;17.00;47.80;;;;;;5089728;28;19989;-64
2023/01/03 10:08:33;;;;;;;;;;;17.00;48.00;;;;;;5088677;28;19920;-64
2023/01/03 10:11:05;;;;;;;;;;;17.00;48.10;;;;;;5088750;28;20464;-64
2023/01/03 10:13:50;;;;;;;;;;;16.80;48.20;;;;;;5088632;28;19920;-71
2023/01/03 10:19:03;;;;;;;;;;;16.70;48.50;;;;;;5089748;28;19923;-64
2023/01/03 10:24:21;;;;;;;;;;;16.60;48.70;;;;;;5089949;28;19918;-71
2023/01/03 10:26:50;;;;;;;;;;;16.50;48.80;;;;;;5088541;28;19920;-64
2023/01/03 10:29:16;;;;;;;;;;;16.50;48.90;;;;;;5088899;28;19960;-65
2023/01/03 10:31:53;;;;;;;;;;;16.50;49.10;;;;;;5088434;28;19970;-65
2023/01/03 10:34:19;;;;;;;;;;;16.40;49.10;;;;;;5088830;28;19920;-72
2023/01/03 10:36:44;;;;;;;;;;;16.40;49.30;;;;;;5088272;28;19970;-65
2023/01/03 10:39:10;;;;;;;;;;;16.30;49.40;;;;;;5088433;28;19974;-71
2023/01/03 10:41:39;;;;;;;;;;;16.30;49.40;;;;;;5088331;28;19985;-65
2023/01/03 10:44:04;;;;;;;;;;;16.30;49.60;;;;;;5088412;28;19924;-64
2023/01/03 10:46:30;;;;;;;;;;;16.20;49.60;;;;;;5088534;28;20023;-66
2023/01/03 10:48:56;;;;;;;;;;;16.20;49.70;;;;;;5088236;28;20421;-64
2023/01/03 10:51:26;;;;;;;;;;;16.20;49.80;;;;;;5089319;28;20002;-65
2023/01/03 10:53:54;;;;;;;;;;;16.20;49.90;;;;;;5089468;28;20276;-65
2023/01/03 10:56:20;;;;;;;;;;;16.20;49.90;;;;;;5088391;28;19921;-71
2023/01/03 10:58:45;;;;;;;;;;;16.10;50.00;;;;;;5089264;28;20474;-65
2023/01/03 11:01:26;;;;;;;;;;;16.10;50.00;;;;;;5071381;28;19921;-65
2023/01/03 11:06:57;;;;;;;;;;;16.10;50.10;;;;;;5110303;27;19934;-65
2023/01/03 11:09:23;;;;;;;;;;;16.10;50.20;;;;;;5092015;28;19946;-65
2023/01/03 11:11:53;;;;;;;;;;;16.00;50.30;;;;;;5092199;28;19920;-65
2023/01/03 11:14:26;;;;;;;;;;;16.00;50.30;;;;;;5092098;28;19920;-65
2023/01/03 11:16:53;;;;;;;;;;;16.00;50.40;;;;;;5091636;28;19973;-66
2023/01/03 11:19:19;;;;;;;;;;;16.00;50.60;;;;;;5110072;28;19989;-66
2023/01/03 11:21:47;;;;;;;;;;;16.10;50.70;;;;;;5092057;28;19920;-73
2023/01/03 11:24:33;;;;;;;;;;;16.60;50.30;;;;;;5091952;28;20011;-73
2023/01/03 11:27:06;;;;;;;;;;;17.10;49.60;;;;;;5109529;28;19963;-73
2023/01/03 11:29:41;;;;;;;;;;;17.80;48.20;;;;;;5091869;28;19920;-66
2023/01/03 11:32:12;;;;;;;;;;;18.70;46.50;;;;;;5091855;28;20421;-66
2023/01/03 11:42:57;;;;;;;;;;;22.10;40.30;;;;;;5089893;28;20391;-65
2023/01/03 11:45:29;;;;;;;;;;;22.60;39.20;;;;;;5105552;28;19920;-72
2023/01/03 11:48:15;;;;;;;;;;;23.20;38.50;;;;;;5088728;28;19920;-65
2023/01/03 11:53:29;;;;;;;;;;;23.90;37.30;;;;;;5127472;27;1868220;-65
2023/01/03 11:56:01;;;;;;;;;;;24.10;37.00;;;;;;5174392;27;19926;-66
2023/01/03 11:58:39;;;;;;;;;;;24.40;36.70;;;;;;5174590;27;19919;-65
2023/01/03 12:01:12;;;;;;;;;;;24.40;36.70;;;;;;5174371;27;20580;-65
2023/01/03 12:06:27;;;;;;;;;;;24.30;36.80;;;;;;5110400;27;19944;-66
2023/01/03 12:08:58;;;;;;;;;;;24.20;36.90;;;;;;5108902;28;19920;-72
2023/01/03 12:11:30;;;;;;;;;;;24.00;37.10;;;;;;5110389;28;20257;-71
2023/01/03 12:14:08;;;;;;;;;;;23.80;37.30;;;;;;5108827;28;19920;-65
2023/01/03 12:16:44;;;;;;;;;;;23.70;37.60;;;;;;5108712;28;20439;-65
2023/01/03 12:22:00;;;;;;;;;;;23.30;38.20;;;;;;5089818;28;20390;-71
2023/01/03 12:24:44;;;;;;;;;;;23.10;38.50;;;;;;5088787;28;20015;-71
2023/01/03 12:27:21;;;;;;;;;;;22.80;38.90;;;;;;5088584;28;20015;-65
2023/01/03 12:32:38;;;;;;;;;;;22.40;39.50;;;;;;5110208;27;19912;-71
2023/01/03 12:37:46;;;;;;;;;;;21.80;40.20;;;;;;5110315;27;19908;-66
2023/01/03 12:43:04;;;;;;;;;;;21.40;40.90;;;;;;5110226;27;19919;-65
2023/01/03 12:51:05;;;;;;;;;;;20.80;41.90;;;;;;5089586;28;20288;-71
2023/01/03 12:53:38;;;;;;;;;;;20.60;42.20;;;;;;5088287;28;19927;-65
2023/01/03 12:56:24;;;;;;;;;;;20.50;42.40;;;;;;5088616;28;19982;-72
2023/01/03 12:58:57;;;;;;;;;;;20.30;42.60;;;;;;5088287;28;19920;-71
2023/01/03 13:04:08;;;;;;;;;;;20.10;43.00;;;;;;5110254;27;19940;-65
2023/01/03 13:06:36;;;;;;;;;;;20.00;43.20;;;;;;5108896;28;20375;-71
2023/01/03 13:09:03;;;;;;;;;;;20.00;43.30;;;;;;5108699;28;19946;-71
2023/01/03 13:11:34;;;;;;;;;;;19.90;43.50;;;;;;5108808;28;19920;-71
2023/01/03 13:14:04;;;;;;;;;;;19.80;43.70;;;;;;5108791;28;19959;-65
2023/01/03 13:16:37;;;;;;;;;;;19.80;43.80;;;;;;5108636;28;19920;-65
2023/01/03 13:19:22;;;;;;;;;;;19.70;43.90;;;;;;5109126;28;20360;-65
2023/01/03 13:25:20;;;;;;;;;;;19.60;43.90;;;;;;5130735;27;19908;-65
2023/01/03 13:27:49;;;;;;;;;;;19.50;44.10;;;;;;5129171;28;20355;-66
2023/01/03 13:30:20;;;;;;;;;;;19.40;44.30;;;;;;5129348;28;19980;-69
2023/01/03 13:33:02;;;;;;;;;;;19.30;44.30;;;;;;5129455;28;20428;-66
2023/01/03 13:35:30;;;;;;;;;;;19.20;44.50;;;;;;5129666;28;20006;-71
2023/01/03 13:37:57;;;;;;;;;;;19.20;44.80;;;;;;5129614;28;19919;-66
2023/01/03 13:40:29;;;;;;;;;;;19.00;44.90;;;;;;5129238;28;19939;-71
2023/01/03 13:43:15;;;;;;;;;;;18.90;45.00;;;;;;5129251;28;19923;-65
2023/01/03 13:48:22;;;;;;;;;;;18.70;45.50;;;;;;5110014;27;19934;-66
2023/01/03 13:51:09;;;;;;;;;;;18.50;45.60;;;;;;5108080;28;19920;-71
2023/01/03 13:53:38;;;;;;;;;;;18.40;45.90;;;;;;5108307;28;19915;-71
2023/01/03 14:04:40;;;;;;;;;;;18.00;47.00;;;;;;5090482;28;19908;-65
2023/01/03 14:10:11;;;;;;;;;;;17.70;47.50;;;;;;5126797;27;1867189;-71
2023/01/03 14:15:22;;;;;;;;;;;17.40;47.80;;;;;;5089815;28;19909;-66
2023/01/03 14:17:50;;;;;;;;;;;17.50;48.20;;;;;;5088486;28;20370;-72
2023/01/03 14:20:21;;;;;;;;;;;17.40;48.30;;;;;;5089885;28;19920;-66
2023/01/03 14:22:48;;;;;;;;;;;17.30;48.50;;;;;;5105469;28;19959;-65
2023/01/03 14:25:33;;;;;;;;;;;17.20;48.60;;;;;;5088780;28;19924;-65
2023/01/03 14:28:00;;;;;;;;;;;17.10;48.70;;;;;;5088223;28;20007;-65
2023/01/03 14:30:30;;;;;;;;;;;17.10;48.90;;;;;;5088809;28;19959;-67
2023/01/03 14:32:56;;;;;;;;;;;17.00;49.10;;;;;;5087062;28;19951;-65
2023/01/03 14:35:38;;;;;;;;;;;17.00;49.20;;;;;;5087086;28;19924;-64
2023/01/03 14:38:04;;;;;;;;;;;16.90;49.30;;;;;;5088665;28;19946;-65
2023/01/03 14:40:29;;;;;;;;;;;16.90;49.60;;;;;;5088732;28;19921;-65
2023/01/03 14:42:55;;;;;;;;;;;16.90;49.60;;;;;;5088018;28;19921;-65
2023/01/03 14:45:21;;;;;;;;;;;16.90;49.70;;;;;;5087161;28;19920;-65
2023/01/03 14:47:46;;;;;;;;;;;16.80;49.80;;;;;;5087353;28;19955;-65
2023/01/03 14:50:28;;;;;;;;;;;16.70;49.90;;;;;;5088280;28;19928;-65
2023/01/03 14:52:55;;;;;;;;;;;16.70;50.00;;;;;;5087046;28;19920;-66
2023/01/03 14:55:21;;;;;;;;;;;16.70;50.20;;;;;;5088195;28;19924;-71
2023/01/03 14:57:47;;;;;;;;;;;16.60;50.30;;;;;;5088167;28;20390;-71
2023/01/03 15:02:56;;;;;;;;;;;16.50;50.50;;;;;;5089977;28;19945;-72
2023/01/03 15:10:51;;;;;;;;;;;16.50;50.70;;;;;;5089891;28;19919;-65
2023/01/03 15:16:06;;;;;;;;;;;16.40;50.90;;;;;;5089838;28;19918;-66
2023/01/03 15:18:34;;;;;;;;;;;16.40;51.00;;;;;;5088988;28;19920;-65
2023/01/03 15:21:00;;;;;;;;;;;16.30;51.00;;;;;;5088541;28;20003;-71
2023/01/03 15:26:18;;;;;;;;;;;16.30;51.20;;;;;;5089932;28;20287;-71
2023/01/03 15:28:48;;;;;;;;;;;16.20;51.20;;;;;;5088553;28;19966;-72
2023/01/03 15:31:33;;;;;;;;;;;16.30;51.30;;;;;;5088890;28;19920;-72
2023/01/03 15:36:37;;;;;;;;;;;16.20;51.40;;;;;;5127379;27;1870811;-65
2023/01/03 15:39:06;;;;;;;;;;;16.20;51.50;;;;;;5174721;27;20425;-70
2023/01/03 15:44:18;;;;;;;;;;;16.20;51.60;;;;;;5174254;27;19926;-65
2023/01/03 15:46:45;;;;;;;;;;;16.20;51.70;;;;;;5174290;27;19919;-72
2023/01/03 15:49:13;;;;;;;;;;;16.10;51.70;;;;;;5193080;27;20297;-65
2023/01/03 15:51:39;;;;;;;;;;;16.10;51.80;;;;;;5192891;27;20266;-65
2023/01/03 15:54:09;;;;;;;;;;;16.10;51.90;;;;;;5174248;27;19932;-71
2023/01/03 15:56:35;;;;;;;;;;;16.00;51.90;;;;;;5192863;27;19995;-65
2023/01/03 15:59:05;;;;;;;;;;;16.10;52.00;;;;;;5174336;27;19932;-65
2023/01/03 16:01:31;;;;;;;;;;;16.00;52.00;;;;;;5192831;27;20009;-66
2023/01/03 16:03:56;;;;;;;;;;;16.00;52.10;;;;;;5174057;27;20002;-72
2023/01/03 16:06:22;;;;;;;;;;;16.00;52.10;;;;;;5174163;27;19918;-65
2023/01/03 16:08:48;;;;;;;;;;;16.00;52.20;;;;;;5174326;27;20417;-66
2023/01/03 16:11:17;;;;;;;;;;;15.90;52.30;;;;;;5153260;27;20285;-72
2023/01/03 16:13:44;;;;;;;;;;;15.90;52.40;;;;;;5171673;27;19926;-71
2023/01/03 16:16:10;;;;;;;;;;;15.90;52.40;;;;;;5152679;27;19975;-72
2023/01/03 16:18:38;;;;;;;;;;;15.90;52.50;;;;;;5171559;27;19923;-66
2023/01/03 16:21:04;;;;;;;;;;;15.80;52.50;;;;;;5152720;27;19944;-65
2023/01/03 16:23:31;;;;;;;;;;;15.80;52.50;;;;;;5153078;27;19923;-65
2023/01/03 16:25:56;;;;;;;;;;;15.80;52.60;;;;;;5152638;27;19919;-71
2023/01/03 16:28:23;;;;;;;;;;;15.80;52.70;;;;;;5152885;27;19964;-66
2023/01/03 16:31:01;;;;;;;;;;;15.70;52.60;;;;;;5171249;27;19919;-66
2023/01/03 16:33:29;;;;;;;;;;;15.70;52.70;;;;;;5152506;27;19919;-66
2023/01/03 16:35:55;;;;;;;;;;;15.70;52.70;;;;;;5152208;27;19930;-72
2023/01/03 16:38:24;;;;;;;;;;;15.70;52.80;;;;;;5152715;27;20378;-66
2023/01/03 16:40:50;;;;;;;;;;;15.70;52.80;;;;;;5152396;27;19919;-65
2023/01/03 16:43:15;;;;;;;;;;;15.70;52.80;;;;;;5170988;27;19923;-65
2023/01/03 16:45:41;;;;;;;;;;;15.70;52.90;;;;;;5170780;27;19986;-65
2023/01/03 16:48:09;;;;;;;;;;;15.60;52.90;;;;;;5138169;27;19962;-72
2023/01/03 16:50:37;;;;;;;;;;;15.60;53.00;;;;;;5138348;27;20028;-72
2023/01/03 16:53:05;;;;;;;;;;;15.60;53.10;;;;;;5138547;27;19933;-65
2023/01/03 16:55:31;;;;;;;;;;;15.60;53.10;;;;;;5138269;27;20378;-66
2023/01/03 16:57:57;;;;;;;;;;;15.50;53.10;;;;;;5138480;27;20398;-72